Flight Track Log - Related Links

Times and Time Zones

All times are in EDT time to prevent confusion due to time zone crossing. See the THY4 flight status page for this flight to view local times or setup timezone preferences in your user account.

Time Position Orientation Groundspeed Altitude Reporting Facility
EDT Latitude Longitude Course Direction KTS MPH feet Rate Location/Type
Mon 12:58:29 PM 40.6420 -73.7910 351° North 10 12  Level FlightAware ADS-B
Mon 12:59:36 PM 40.6410 -73.7900 143° Southeast 2 2 58 Level FlightAware ADS-B
Mon 01:01:45 PM 40.6410 -73.7920 270° West 10 12 63 Level FlightAware ADS-B
Mon 01:04:00 PM 40.8855 -73.5645 37° Northeast  Level FlightAware Approximate
Mon 01:05:00 PM 40.9894 -73.4606 37° Northeast  Level FlightAware Approximate
Mon 01:05:58 PM 40.6400 -73.7930 37° Northeast 15 17  Level FlightAware ADS-B
Mon 01:06:00 PM 41.0993 -73.3673 37° Northeast  Level FlightAware Approximate
Mon 01:06:30 PM 40.6390 -73.7930 180° South 16 18  Level FlightAware ADS-B
Mon 01:06:59 PM 40.6390 -73.7920 90° East 25 29 138 Level FlightAware ADS-B
Mon 01:07:20 PM 40.6380 -73.7910 143° Southeast 27 31 150 Level FlightAware ADS-B
Mon 01:07:49 PM 40.6370 -73.7890 123° Southeast 31 36 161 Level FlightAware ADS-B
Mon 01:08:08 PM 40.6370 -73.7880 90° East 22 25 178 Level FlightAware ADS-B
Mon 01:08:37 PM 40.6360 -73.7870 143° Southeast 23 26 192 Level FlightAware ADS-B
Mon 01:09:17 PM 40.6350 -73.7850 123° Southeast 23 26 217 Level FlightAware ADS-B
Mon 01:09:29 PM 40.6350 -73.7840 90° East 26 30 265 Level FlightAware ADS-B
Mon 01:09:57 PM 40.6340 -73.7830 143° Southeast 19 22 284 Level FlightAware ADS-B
Mon 01:10:25 PM 40.6340 -73.7820 90° East 20 23 340 Level FlightAware ADS-B
Mon 01:10:55 PM 40.6330 -73.7830 217° Southwest 20 23 425 Level FlightAware ADS-B
Mon 01:11:49 PM 40.6370 -73.7910 303° West 105 121 578 Level FlightAware ADS-B
Mon 01:12:18 PM 40.6530 -73.8280 300° West 176 203 800 1,950 Climbing FlightAware ADS-B
Mon 01:12:29 PM 40.6550 -73.8380 285° West 176 203 1,300 1,610 Climbing FlightAware ADS-B
Mon 01:12:59 PM 40.6410 -73.8640 235° Southwest 185 213 1,900 1,565 Climbing FlightAware ADS-B
Mon 01:13:15 PM 40.6300 -73.8750 217° Southwest 183 211 2,500 2,000 Climbing FlightAware ADS-B
Mon 01:13:23 PM 40.6240 -73.8760 187° South 181 208 2,700 1,241 Climbing FlightAware ADS-B
Mon 01:13:44 PM 40.6080 -73.8650 152° Southeast 195 224 3,100 909 Climbing FlightAware ADS-B
Mon 01:13:56 PM 40.6040 -73.8510 111° Southeast 204 235 3,200 769 Climbing FlightAware ADS-B
Mon 01:14:23 PM 40.6080 -73.8160 81° East 233 268 3,600 947 Climbing FlightAware ADS-B
Mon 01:14:53 PM 40.6140 -73.7720 80° East 266 306 4,100 1,286 Climbing FlightAware ADS-B
Mon 01:15:05 PM 40.6170 -73.7510 79° East 276 318 4,500 2,571 Climbing FlightAware ADS-B
Mon 01:15:28 PM 40.6230 -73.7120 79° East 278 320 5,600 2,595 Climbing FlightAware ADS-B
Mon 01:15:42 PM 40.6290 -73.6910 69° East 279 321 6,100 2,000 Climbing FlightAware ADS-B
Mon 01:15:58 PM 40.6450 -73.6710 43° Northeast 280 322 6,600 2,286 Climbing FlightAware ADS-B
Mon 01:16:24 PM 40.6740 -73.6490 30° Northeast 280 322 7,700 2,667 Climbing FlightAware ADS-B
Mon 01:16:52 PM 40.7040 -73.6260 30° Northeast 277 319 9,000 2,700 Climbing FlightAware ADS-B
Mon 01:17:04 PM 40.7182 -73.6152 30° Northeast 278 320 9,500 1,667 Climbing FlightAware ADS-B
Mon 01:17:46 PM 40.7670 -73.5810 28° Northeast 304 350 10,500 1,103 Climbing FlightAware ADS-B
Mon 01:18:31 PM 40.8250 -73.5390 29° Northeast 347 399 11,100 1,143 Climbing FlightAware ADS-B
Mon 01:19:10 PM 40.8850 -73.4970 28° Northeast 368 423 12,100 1,735 Climbing FlightAware ADS-B
Mon 01:19:54 PM 40.9510 -73.4490 29° Northeast 377 434 13,500 1,906 Climbing FlightAware ADS-B
Mon 01:20:35 PM 41.0140 -73.4040 28° Northeast 385 443 14,800 1,852 Climbing FlightAware ADS-B
Mon 01:21:15 PM 41.0761 -73.3590 29° Northeast 391 450 16,000 1,853 Climbing FlightAware ADS-B
Mon 01:21:43 PM 41.1186 -73.3169 37° Northeast 399 459 16,900 1,658 Climbing FlightAware ADS-B
Mon 01:22:31 PM 41.1783 -73.2274 48° Northeast 408 470 18,100 1,443 Climbing FlightAware ADS-B
Mon 01:23:02 PM 41.2182 -73.1694 48° Northeast 416 479 18,800 1,477 Climbing FlightAware ADS-B
Mon 01:23:36 PM 41.2638 -73.1026 48° Northeast 425 489 19,700 1,588 Climbing FlightAware ADS-B
Mon 01:24:10 PM 41.3079 -73.0378 48° Northeast 431 496 20,600 1,304 Climbing FlightAware ADS-B
Mon 01:24:45 PM 41.3520 -72.9730 48° Northeast 440 506 21,200 1,017 Climbing FlightAware ADS-B
Mon 01:25:09 PM 41.3870 -72.9220 48° Northeast 448 516 21,600 1,397 Climbing FlightAware ADS-B
Mon 01:25:58 PM 41.4570 -72.8190 48° Northeast 451 519 22,900 1,400 Climbing FlightAware ADS-B
Mon 01:26:39 PM 41.5140 -72.7350 48° Northeast 459 528 23,700 552 Climbing FlightAware ADS-B
Mon 01:27:25 PM 41.5710 -72.6530 47° Northeast 460 529 23,700  Level FlightAware ADS-B
Mon 01:28:13 PM 41.6300 -72.5690 47° Northeast 460 529 23,700  Level FlightAware ADS-B
Mon 01:28:50 PM 41.6760 -72.5030 47° Northeast 460 529 23,700  Level FlightAware ADS-B
Mon 01:29:36 PM 41.7320 -72.4210 48° Northeast 460 529 23,700  Level FlightAware ADS-B
Mon 01:30:14 PM 41.7790 -72.3540 47° Northeast 460 529 23,700 2,640 Level FlightAware ADS-B
Mon 01:31:41 PM 41.9860 -72.1330 38° Northeast 477 549 29,200 2,908 Climbing FlightAware ADS-B
Mon 01:32:24 PM 42.0510 -72.0540 42° Northeast 473 544 30,000 1,186 Climbing FlightAware ADS-B
Mon 01:33:07 PM 42.1290 -71.9590 42° Northeast 472 543 30,900 1,137 Climbing FlightAware ADS-B
Mon 01:33:59 PM 42.2110 -71.8590 42° Northeast 462 532 31,800 1,052 Climbing FlightAware ADS-B
Mon 01:34:44 PM 42.2830 -71.7710 42° Northeast 460 529 32,600 988 Climbing FlightAware ADS-B
Mon 01:35:24 PM 42.3470 -71.6920 42° Northeast 461 531 33,200 900 Climbing FlightAware ADS-B
Mon 01:36:04 PM 42.4120 -71.6130 42° Northeast 460 529 33,800 800 Climbing FlightAware ADS-B
Mon 01:36:39 PM 42.4660 -71.5460 42° Northeast 462 532 34,200 750 Climbing FlightAware ADS-B
Mon 01:37:24 PM 42.5380 -71.4570 42° Northeast 461 531 34,800 565 Climbing FlightAware ADS-B
Mon 01:38:04 PM 42.6030 -71.3760 43° Northeast 462 532 35,000 160 Climbing FlightAware ADS-B
Mon 01:38:39 PM 42.6560 -71.3110 42° Northeast 460 529 35,000  Level FlightAware ADS-B
Mon 01:39:24 PM 42.7280 -71.2210 43° Northeast 463 533 35,000  Level FlightAware ADS-B
Mon 01:40:04 PM 42.7880 -71.1460 43° Northeast 465 535 35,000  Level FlightAware ADS-B
Mon 01:40:44 PM 42.8550 -71.0610 43° Northeast 461 531 35,000  Level FlightAware ADS-B
Mon 01:41:09 PM 42.8950 -71.0100 43° Northeast 462 532 35,000  Level FlightAware ADS-B
Mon 01:41:55 PM 42.9630 -70.9250 42° Northeast 462 532 35,000  Level FlightAware ADS-B
Mon 01:42:34 PM 43.0290 -70.8420 43° Northeast 464 534 35,000  Level FlightAware ADS-B
Mon 01:43:19 PM 43.1000 -70.7510 43° Northeast 465 535 35,000  Level FlightAware ADS-B
Mon 01:43:59 PM 43.1670 -70.6660 43° Northeast 467 537 35,000  Level FlightAware ADS-B
Mon 01:44:44 PM 43.2350 -70.5780 43° Northeast 468 539 35,000  Level FlightAware ADS-B
Mon 01:45:39 PM 43.3290 -70.4580 43° Northeast 474 545 35,000  Level FlightAware ADS-B
Mon 01:46:21 PM 43.3950 -70.3730 43° Northeast 473 544 35,000  Level FlightAware ADS-B
Mon 01:47:05 PM 43.4650 -70.2820 43° Northeast 473 544 35,000  Level FlightAware ADS-B
Mon 01:47:49 PM 43.5350 -70.1920 43° Northeast 473 544 35,000  Level FlightAware ADS-B
Mon 01:48:26 PM 43.5930 -70.1160 43° Northeast 473 544 35,000  Level FlightAware ADS-B
Mon 01:49:13 PM 43.6680 -70.0190 43° Northeast 471 542 35,000  Level FlightAware ADS-B
Mon 01:49:51 PM 43.7280 -69.9400 44° Northeast 471 542 35,000  Level FlightAware ADS-B
Mon 01:50:27 PM 43.7870 -69.8630 43° Northeast 471 542 35,000  Level FlightAware ADS-B
Mon 01:51:11 PM 43.8550 -69.7730 44° Northeast 471 542 35,000  Level FlightAware ADS-B
Mon 01:51:51 PM 43.9180 -69.6890 44° Northeast 473 544 35,000  Level FlightAware ADS-B
Mon 01:52:29 PM 43.9770 -69.6120 43° Northeast 473 544 35,000  Level FlightAware ADS-B
Mon 01:53:15 PM 44.0510 -69.5130 44° Northeast 473 544 35,000  Level FlightAware ADS-B
Mon 01:53:59 PM 44.1200 -69.4210 44° Northeast 473 544 35,000  Level FlightAware ADS-B
Mon 01:54:41 PM 44.1860 -69.3320 44° Northeast 475 547 35,000  Level FlightAware ADS-B
Mon 01:55:17 PM 44.2440 -69.2550 44° Northeast 476 548 35,000  Level FlightAware ADS-B
Mon 01:55:54 PM 44.3010 -69.1780 44° Northeast 477 549 35,000  Level FlightAware ADS-B
Mon 01:56:42 PM 44.3790 -69.0730 44° Northeast 478 550 35,000  Level FlightAware ADS-B
Mon 01:57:20 PM 44.4370 -68.9940 44° Northeast 478 550 35,000  Level FlightAware ADS-B
Mon 01:58:02 PM 44.5050 -68.9010 44° Northeast 478 550 35,000  Level FlightAware ADS-B
Mon 01:58:46 PM 44.5740 -68.8070 44° Northeast 478 550 35,000  Level FlightAware ADS-B
Mon 01:59:29 PM 44.6410 -68.7150 44° Northeast 480 552 35,000  Level FlightAware ADS-B
Mon 02:00:08 PM 44.7030 -68.6310 44° Northeast 480 552 35,000  Level FlightAware ADS-B
Mon 02:00:50 PM 44.7700 -68.5380 45° Northeast 482 555 35,000  Level FlightAware ADS-B
Mon 02:01:32 PM 44.8370 -68.4450 45° Northeast 482 555 35,000  Level FlightAware ADS-B
Mon 02:02:16 PM 44.9060 -68.3490 45° Northeast 484 557 35,000  Level FlightAware ADS-B
Mon 02:02:54 PM 44.9670 -68.2640 45° Northeast 485 558 35,000  Level FlightAware ADS-B
Mon 02:03:42 PM 45.0450 -68.1560 44° Northeast 486 559 35,000  Level FlightAware ADS-B
Mon 02:04:18 PM 45.1010 -68.0770 45° Northeast 486 559 35,000  Level FlightAware ADS-B
Mon 02:04:58 PM 45.1650 -67.9870 45° Northeast 485 558 35,000  Level FlightAware ADS-B
Mon 02:05:38 PM 45.2280 -67.8980 45° Northeast 485 558 35,000  Level FlightAware ADS-B
Mon 02:06:18 PM 45.2930 -67.8060 45° Northeast 486 559 35,000  Level FlightAware ADS-B
Mon 02:06:57 PM 45.3520 -67.7220 45° Northeast 486 559 35,000  Level FlightAware ADS-B
Mon 02:07:39 PM 45.4230 -67.6280 43° Northeast 486 559 35,000  Level FlightAware ADS-B
Mon 02:08:18 PM 45.4890 -67.5430 42° Northeast 486 559 35,000  Level FlightAware ADS-B
Mon 02:09:02 PM 45.5590 -67.4500 43° Northeast 488 562 35,000  Level FlightAware ADS-B
Mon 02:09:43 PM 45.6280 -67.3590 43° Northeast 484 557 35,000  Level FlightAware ADS-B
Mon 02:10:18 PM 45.6860 -67.2820 43° Northeast 489 563 35,000  Level FlightAware ADS-B
Mon 02:11:42 PM 45.8010 -67.1280 43° Northeast 488 562 35,000  Level FlightAware ADS-B
Mon 02:12:23 PM 45.8910 -67.0070 43° Northeast 486 559 35,000  Level FlightAware ADS-B
Mon 02:13:03 PM 45.9530 -66.9240 43° Northeast 486 559 35,000  Level FlightAware ADS-B
Mon 02:13:48 PM 46.0290 -66.8210 43° Northeast 488 562 35,000  Level FlightAware ADS-B
Mon 02:14:28 PM 46.0910 -66.7360 44° Northeast 488 562 35,000  Level FlightAware ADS-B
Mon 02:14:53 PM 46.1310 -66.6820 43° Northeast 489 563 35,000  Level FlightAware ADS-B
Mon 02:16:40 PM 46.2770 -66.4840 43° Northeast 489 563 35,000  Level FlightAware ADS-B
Mon 02:17:23 PM 46.3790 -66.3420 44° Northeast 490 564 35,000  Level FlightAware ADS-B
Mon 02:18:10 PM 46.4470 -66.2500 43° Northeast 490 564 35,000  Level FlightAware ADS-B
Mon 02:18:46 PM 46.4970 -66.1810 44° Northeast 490 564 35,000  Level FlightAware ADS-B
Mon 02:19:34 PM 46.5650 -66.0890 43° Northeast 490 564 35,000  Level FlightAware ADS-B
Mon 02:20:27 PM 46.6790 -65.9230 45° Northeast 495 570 35,000  Level FlightAware ADS-B
Mon 02:21:15 PM 46.7470 -65.8290 43° Northeast 495 570 35,000  Level FlightAware ADS-B
Mon 02:21:51 PM 46.7970 -65.7580 44° Northeast 495 570 35,000  Level FlightAware ADS-B
Mon 02:22:27 PM 46.8470 -65.6860 45° Northeast 495 570 35,000  Level FlightAware ADS-B
Mon 02:23:29 PM 46.9340 -65.5640 44° Northeast 495 570 35,000  Level FlightAware ADS-B
Mon 02:24:06 PM 46.9860 -65.4900 44° Northeast 495 570 35,000  Level FlightAware ADS-B
Mon 02:24:42 PM 47.0370 -65.4190 43° Northeast 495 570 35,000  Level FlightAware ADS-B
Mon 02:25:32 PM 47.1070 -65.3200 44° Northeast 495 570 35,000  Level FlightAware ADS-B
Mon 02:26:08 PM 47.1570 -65.2480 44° Northeast 495 570 35,000  Level FlightAware ADS-B
Mon 02:27:08 PM 47.2410 -65.1290 44° Northeast 495 570 35,000  Level FlightAware ADS-B
Mon 02:27:44 PM 47.2910 -65.0570 44° Northeast 495 570 35,000  Level FlightAware ADS-B
Mon 02:28:32 PM 47.3590 -64.9610 44° Northeast 495 570 35,000  Level FlightAware ADS-B
Mon 02:29:18 PM 47.4230 -64.8690 44° Northeast 495 570 35,000  Level FlightAware ADS-B
Mon 02:29:55 PM 47.4750 -64.7950 44° Northeast 495 570 35,000  Level FlightAware ADS-B
Mon 02:31:16 PM 47.7167 -64.3833 44° Northeast 490 564 35,000  Level Gander Center
Mon 02:32:16 PM 47.8167 -64.2500 42° Northeast 490 564 35,000  Level Gander Center
Mon 02:33:16 PM 47.9333 -64.1000 41° Northeast 490 564 35,000  Level Gander Center
Mon 02:34:17 PM 48.0167 -63.9500 50° Northeast 490 564 35,000  Level Moncton Center
Mon 02:35:17 PM 48.1167 -63.8000 45° Northeast 490 564 35,000  Level Moncton Center
Mon 02:36:17 PM 48.2167 -63.6500 45° Northeast 490 564 35,000  Level Moncton Center
Mon 02:37:17 PM 48.3000 -63.5167 47° Northeast 490 564 35,000  Level Moncton Center
Mon 02:38:17 PM 48.4000 -63.3667 45° Northeast 490 564 35,000  Level Moncton Center
Mon 02:39:17 PM 48.5000 -63.2167 45° Northeast 490 564 35,000  Level Moncton Center
Mon 02:40:16 PM 48.5833 -63.0500 53° Northeast 500 575 35,000  Level Gander Center
Mon 02:41:16 PM 48.6833 -62.9000 45° Northeast 490 564 35,000  Level Gander Center
Mon 02:42:16 PM 48.7667 -62.7500 50° Northeast 500 575 35,000  Level Gander Center
Mon 02:43:16 PM 48.8667 -62.6000 45° Northeast 500 575 35,000  Level Gander Center
Mon 02:44:16 PM 48.9667 -62.4500 45° Northeast 500 575 35,000  Level Gander Center
Mon 02:45:16 PM 49.0833 -62.3000 40° Northeast 500 575 35,000  Level Gander Center
Mon 02:46:16 PM 49.1667 -62.1500 50° Northeast 500 575 35,000  Level Gander Center
Mon 02:47:16 PM 49.2667 -61.9667 50° Northeast 500 575 35,000  Level Gander Center
Mon 02:48:16 PM 49.3500 -61.8167 50° Northeast 500 575 35,000  Level Gander Center
Mon 02:49:16 PM 49.4500 -61.6667 44° Northeast 510 587 35,000  Level Gander Center
Mon 02:50:16 PM 49.5500 -61.5167 44° Northeast 510 587 35,000  Level Gander Center
Mon 02:51:16 PM 49.6333 -61.3667 49° Northeast 500 575 35,000  Level Gander Center
Mon 02:52:16 PM 49.7333 -61.1833 50° Northeast 500 575 35,000  Level Gander Center
Mon 02:53:16 PM 49.8333 -61.0167 47° Northeast 510 587 35,000  Level Gander Center
Mon 02:54:16 PM 49.9333 -60.8667 44° Northeast 500 575 35,000  Level Gander Center
Mon 02:55:16 PM 50.0167 -60.7167 49° Northeast 500 575 35,000  Level Gander Center
Mon 02:56:16 PM 50.1167 -60.5500 47° Northeast 510 587 35,000  Level Gander Center
Mon 02:57:16 PM 50.2167 -60.3667 50° Northeast 510 587 35,000  Level Gander Center
Mon 02:58:16 PM 50.3000 -60.2167 49° Northeast 510 587 35,000  Level Gander Center
Mon 02:59:16 PM 50.4000 -60.0500 47° Northeast 510 587 35,000  Level Gander Center
Mon 03:00:16 PM 50.5000 -59.8833 47° Northeast 510 587 35,000  Level Gander Center
Mon 03:01:16 PM 50.6000 -59.7000 49° Northeast 520 598 35,000  Level Gander Center
Mon 03:02:16 PM 50.6833 -59.5333 52° Northeast 530 610 35,000  Level Gander Center
Mon 03:03:16 PM 50.7667 -59.3500 54° Northeast 530 610 35,000  Level Gander Center
Mon 03:04:16 PM 50.8667 -59.1667 49° Northeast 530 610 35,000  Level Gander Center
Mon 03:05:16 PM 50.9500 -58.9667 56° Northeast 530 610 35,000  Level Gander Center
Mon 03:06:16 PM 51.0500 -58.7833 49° Northeast 530 610 35,000  Level Gander Center
Mon 03:07:16 PM 51.1167 -58.5833 62° Northeast 530 610 35,000  Level Gander Center
Mon 03:08:16 PM 51.2167 -58.4000 49° Northeast 530 610 35,000  Level Gander Center
Mon 03:09:16 PM 51.3000 -58.2333 51° Northeast 530 610 35,000  Level Gander Center
Mon 03:10:16 PM 51.4000 -58.0167 53° Northeast 530 610 35,000  Level Gander Center
Mon 03:11:16 PM 51.4667 -57.8500 57° Northeast 540 621 35,000  Level Gander Center
Mon 03:12:16 PM 51.5667 -57.6167 55° Northeast 530 610 35,000  Level Gander Center
Mon 03:13:16 PM 51.6667 -57.4333 49° Northeast 530 610 35,000  Level Gander Center
Mon 03:14:16 PM 51.7333 -57.2500 60° Northeast 540 621 35,000  Level Gander Center
Mon 03:15:16 PM 51.8333 -57.0333 53° Northeast 540 621 35,000  Level Gander Center
Mon 03:16:16 PM 51.9167 -56.8667 51° Northeast 540 621 35,000  Level Gander Center
Mon 03:17:16 PM 52.0000 -56.6333 60° Northeast 540 621 35,000  Level Gander Center
Mon 03:18:16 PM 52.1000 -56.4667 46° Northeast 540 621 35,000  Level Gander Center
Mon 03:19:16 PM 52.1833 -56.2333 60° Northeast 540 621 35,000  Level Gander Center
Mon 03:20:16 PM 52.2667 -56.0333 56° Northeast 540 621 35,000  Level Gander Center
Mon 03:21:16 PM 52.3500 -55.8333 56° Northeast 550 633 35,000  Level Gander Center
Mon 03:22:16 PM 52.4333 -55.6333 56° Northeast 550 633 35,000  Level Gander Center
Mon 03:23:16 PM 52.5167 -55.4333 56° Northeast 550 633 35,000  Level Gander Center
Mon 03:24:16 PM 52.6000 -55.2167 58° Northeast 550 633 35,000  Level Gander Center
Mon 03:25:16 PM 52.6833 -55.0167 55° Northeast 540 621 35,000  Level Gander Center
Mon 03:26:16 PM 52.7667 -54.8167 55° Northeast 540 621 35,000  Level Gander Center
Mon 03:27:16 PM 52.8667 -54.6000 53° Northeast 540 621 35,000  Level Gander Center
Mon 03:28:16 PM 52.9500 -54.4000 55° Northeast 530 610 35,000  Level Gander Center
Mon 03:29:16 PM 53.0000 -54.2167 66° East 540 621 35,000  Level Gander Center
Mon 03:30:16 PM 53.0667 -53.9833 64° Northeast 540 621 35,000  Level Gander Center
Mon 03:31:16 PM 53.1500 -53.7500 59° Northeast 540 621 35,000  Level Gander Center
Mon 03:32:16 PM 53.2000 -53.5167 70° East 540 621 35,000  Level Gander Center
Mon 03:33:16 PM 53.2500 -53.2833 70° East 540 621 35,000  Level Gander Center
Mon 03:34:16 PM 53.3000 -53.0500 70° East 540 621 35,000  Level Gander Center
Mon 03:35:16 PM 53.3667 -52.8000 66° East 540 621 35,000  Level Gander Center
Mon 03:36:16 PM 53.4167 -52.5667 70° East 540 621 35,000  Level Gander Center
Mon 03:37:16 PM 53.4667 -52.3333 70° East 540 621 35,000  Level Gander Center
Mon 03:38:16 PM 53.5167 -52.1333 67° East 540 621 35,000  Level Gander Center
Mon 03:39:16 PM 53.5833 -51.8833 66° East 530 610 35,000  Level Gander Center
Mon 03:40:16 PM 53.6167 -51.6500 76° East 530 610 35,000  Level Gander Center
Mon 03:41:16 PM 53.6667 -51.4167 70° East 530 610 35,000  Level Gander Center
Mon 03:42:16 PM 53.7333 -51.1667 66° East 530 610 35,000  Level Gander Center
Mon 03:43:16 PM 53.7833 -50.9667 67° East 540 621 35,000  Level Gander Center
Mon 03:44:16 PM 53.8167 -50.7167 77° East 530 610 35,000  Level Gander Center
Mon 03:45:16 PM 53.8667 -50.4833 70° East 520 598 35,000  Level Gander Center
Mon 03:46:16 PM 53.9167 -50.2333 71° East 520 598 35,000  Level Gander Center
Mon 03:47:16 PM 53.9833 -50.0167 62° Northeast 520 598 35,000  Level Gander Center
Mon 03:48:16 PM 54.0333 -49.8167 67° East 520 598 35,000 19 Level Gander Center
Mon 03:50:00 PM 54.1667 -49.4790 56° Northeast  Level FlightAware Approximate
Mon 03:57:00 PM 54.6736 -48.0692 60° Northeast  Level FlightAware Approximate
Mon 03:58:00 PM 54.7419 -47.8622 60° Northeast  Level FlightAware Approximate
Mon 03:59:00 PM 54.8098 -47.6544 60° Northeast  Level FlightAware Approximate
Mon 04:00:00 PM 54.8789 -47.4475 60° Northeast  Level FlightAware Approximate
Mon 04:01:00 PM 54.9478 -47.2401 60° Northeast  Level FlightAware Approximate
Mon 04:02:00 PM 55.0164 -47.0319 60° Northeast  Level FlightAware Approximate
Mon 04:03:00 PM 55.0846 -46.8230 60° Northeast  Level FlightAware Approximate
Mon 04:04:00 PM 55.1525 -46.6134 60° Northeast  Level FlightAware Approximate
Mon 04:05:00 PM 55.2200 -46.4031 61° Northeast  Level FlightAware Approximate
Mon 04:06:00 PM 55.2871 -46.1921 61° Northeast  Level FlightAware Approximate
Mon 04:07:00 PM 55.3539 -45.9804 61° Northeast  Level FlightAware Approximate
Mon 04:08:00 PM 55.4203 -45.7680 61° Northeast  Level FlightAware Approximate
Mon 04:09:00 PM 55.4863 -45.5548 61° Northeast  Level FlightAware Approximate
Mon 04:10:00 PM 55.5520 -45.3410 61° Northeast  Level FlightAware Approximate
Mon 04:11:00 PM 55.6172 -45.1263 62° Northeast  Level FlightAware Approximate
Mon 04:12:00 PM 55.6818 -44.9107 62° Northeast  Level FlightAware Approximate
Mon 04:13:00 PM 55.7460 -44.6944 62° Northeast  Level FlightAware Approximate
Mon 04:14:00 PM 55.8098 -44.4774 62° Northeast  Level FlightAware Approximate
Mon 04:15:00 PM 55.8732 -44.2596 62° Northeast  Level FlightAware Approximate
Mon 04:16:00 PM 55.9363 -44.0412 63° Northeast  Level FlightAware Approximate
Mon 04:17:00 PM 55.9989 -43.8220 63° Northeast  Level FlightAware Approximate
Mon 04:18:00 PM 56.0612 -43.6021 63° Northeast  Level FlightAware Approximate
Mon 04:19:00 PM 56.1231 -43.3816 63° Northeast  Level FlightAware Approximate
Mon 04:20:00 PM 56.1846 -43.1603 63° Northeast  Level FlightAware Approximate
Mon 04:21:00 PM 56.2457 -42.9383 64° Northeast  Level FlightAware Approximate
Mon 04:22:00 PM 56.3064 -42.7156 64° Northeast  Level FlightAware Approximate
Mon 04:23:00 PM 56.3666 -42.4922 64° Northeast  Level FlightAware Approximate
Mon 04:24:00 PM 56.4265 -42.2681 64° Northeast  Level FlightAware Approximate
Mon 04:25:00 PM 56.4860 -42.0433 64° Northeast  Level FlightAware Approximate
Mon 04:26:00 PM 56.5451 -41.8178 65° Northeast  Level FlightAware Approximate
Mon 04:27:00 PM 56.6038 -41.5915 65° Northeast  Level FlightAware Approximate
Mon 04:28:00 PM 56.6620 -41.3646 65° Northeast  Level FlightAware Approximate
Mon 04:29:00 PM 56.7198 -41.1370 65° Northeast  Level FlightAware Approximate
Mon 04:30:00 PM 56.7773 -40.9087 65° Northeast  Level FlightAware Approximate
Mon 04:31:00 PM 56.8343 -40.6797 65° Northeast  Level FlightAware Approximate
Mon 04:32:00 PM 56.8909 -40.4500 66° East  Level FlightAware Approximate
Mon 04:33:00 PM 56.9470 -40.2196 66° East  Level FlightAware Approximate
Mon 04:34:00 PM 57.0028 -39.9884 66° East  Level FlightAware Approximate
Mon 04:35:00 PM 57.0579 -39.7565 66° East  Level FlightAware Approximate
Mon 04:36:00 PM 57.1126 -39.5239 66° East  Level FlightAware Approximate
Mon 04:37:00 PM 57.1669 -39.2906 67° East  Level FlightAware Approximate
Mon 04:38:00 PM 57.2207 -39.0566 67° East  Level FlightAware Approximate
Mon 04:39:00 PM 57.2742 -38.8219 67° East  Level FlightAware Approximate
Mon 04:40:00 PM 57.3277 -38.5871 66° East  Level FlightAware Approximate
Mon 04:41:00 PM 57.3833 -38.3534 66° East  Level FlightAware Approximate
Mon 04:42:00 PM 57.4384 -38.1191 66° East  Level FlightAware Approximate
Mon 04:43:00 PM 57.4930 -37.8840 67° East  Level FlightAware Approximate
Mon 04:44:00 PM 57.5473 -37.6482 67° East  Level FlightAware Approximate
Mon 04:45:00 PM 57.6011 -37.4118 67° East  Level FlightAware Approximate
Mon 04:46:00 PM 57.6544 -37.1746 67° East  Level FlightAware Approximate
Mon 04:47:00 PM 57.7073 -36.9367 67° East  Level FlightAware Approximate
Mon 04:48:00 PM 57.7598 -36.6982 68° East  Level FlightAware Approximate
Mon 04:49:00 PM 57.8117 -36.4589 68° East  Level FlightAware Approximate
Mon 04:50:00 PM 57.8633 -36.2190 68° East  Level FlightAware Approximate
Mon 04:51:00 PM 57.9144 -35.9784 68° East  Level FlightAware Approximate
Mon 04:52:00 PM 57.9650 -35.7371 68° East  Level FlightAware Approximate
Mon 04:53:00 PM 58.0152 -35.4951 69° East  Level FlightAware Approximate
Mon 04:54:00 PM 58.0649 -35.2524 69° East  Level FlightAware Approximate
Mon 04:55:00 PM 58.1142 -35.0091 69° East  Level FlightAware Approximate
Mon 04:56:00 PM 58.1630 -34.7651 69° East  Level FlightAware Approximate
Mon 04:57:00 PM 58.2113 -34.5204 69° East  Level FlightAware Approximate
Mon 04:58:00 PM 58.2592 -34.2751 70° East  Level FlightAware Approximate
Mon 04:59:00 PM 58.3066 -34.0291 70° East  Level FlightAware Approximate
Mon 05:00:00 PM 58.3535 -33.7825 70° East  Level FlightAware Approximate
Mon 05:01:00 PM 58.3999 -33.5351 70° East  Level FlightAware Approximate
Mon 05:02:00 PM 58.4459 -33.2872 70° East  Level FlightAware Approximate
Mon 05:03:00 PM 58.4914 -33.0386 71° East  Level FlightAware Approximate
Mon 05:04:00 PM 58.5364 -32.7894 71° East  Level FlightAware Approximate
Mon 05:05:00 PM 58.5809 -32.5395 71° East  Level FlightAware Approximate
Mon 05:06:00 PM 58.6249 -32.2890 71° East  Level FlightAware Approximate
Mon 05:07:00 PM 58.6685 -32.0378 71° East  Level FlightAware Approximate
Mon 05:08:00 PM 58.7115 -31.7861 72° East  Level FlightAware Approximate
Mon 05:09:00 PM 58.7541 -31.5337 72° East  Level FlightAware Approximate
Mon 05:10:00 PM 58.7961 -31.2807 72° East  Level FlightAware Approximate
Mon 05:11:00 PM 58.8377 -31.0271 72° East  Level FlightAware Approximate
Mon 05:12:00 PM 58.8788 -30.7729 73° East  Level FlightAware Approximate
Mon 05:13:00 PM 58.9193 -30.5181 73° East  Level FlightAware Approximate
Mon 05:14:00 PM 58.9594 -30.2627 73° East  Level FlightAware Approximate
Mon 05:15:00 PM 58.9990 -30.0067 73° East  Level FlightAware Approximate
Mon 05:16:00 PM 59.0588 -29.7657 64° Northeast  Level FlightAware Approximate
Mon 05:17:00 PM 59.1187 -29.5242 64° Northeast  Level FlightAware Approximate
Mon 05:18:00 PM 59.1781 -29.2820 64° Northeast  Level FlightAware Approximate
Mon 05:19:00 PM 59.2371 -29.0389 65° Northeast  Level FlightAware Approximate
Mon 05:20:00 PM 59.2957 -28.7949 65° Northeast  Level FlightAware Approximate
Mon 05:21:00 PM 59.3537 -28.5501 65° Northeast  Level FlightAware Approximate
Mon 05:22:00 PM 59.4114 -28.3045 65° Northeast  Level FlightAware Approximate
Mon 05:23:00 PM 59.4685 -28.0580 65° Northeast  Level FlightAware Approximate
Mon 05:24:00 PM 59.5252 -27.8107 66° East  Level FlightAware Approximate
Mon 05:25:00 PM 59.5815 -27.5626 66° East  Level FlightAware Approximate
Mon 05:26:00 PM 59.6372 -27.3137 66° East  Level FlightAware Approximate
Mon 05:27:00 PM 59.6925 -27.0639 66° East  Level FlightAware Approximate
Mon 05:28:00 PM 59.7473 -26.8133 66° East  Level FlightAware Approximate
Mon 05:29:00 PM 59.8017 -26.5619 67° East  Level FlightAware Approximate
Mon 05:30:00 PM 59.8555 -26.3096 67° East  Level FlightAware Approximate
Mon 05:31:00 PM 59.9089 -26.0566 67° East  Level FlightAware Approximate
Mon 05:31:57 PM 60.1040 -25.1060 67° East 511 588 37,000  Level FlightAware ADS-B
Mon 05:32:00 PM 59.9618 -25.8027 67° East  Level FlightAware Approximate
Mon 05:32:37 PM 60.1380 -24.9310 69° East 511 588 37,000  Level FlightAware ADS-B
Mon 05:33:21 PM 60.1760 -24.7390 68° East 511 588 37,000  Level FlightAware ADS-B
Mon 05:34:07 PM 60.2160 -24.5360 68° East 511 588 37,000  Level FlightAware ADS-B
Mon 05:34:53 PM 60.2560 -24.3270 69° East 512 589 37,000  Level FlightAware ADS-B
Mon 05:35:32 PM 60.2890 -24.1590 68° East 513 590 37,000  Level FlightAware ADS-B
Mon 05:36:15 PM 60.3250 -23.9670 69° East 512 589 37,000  Level FlightAware ADS-B
Mon 05:36:55 PM 60.3580 -23.7900 69° East 512 589 37,000  Level FlightAware ADS-B
Mon 05:37:34 PM 60.3900 -23.6180 69° East 513 590 37,000  Level FlightAware ADS-B
Mon 05:38:31 PM 60.4380 -23.3610 69° East 514 592 37,000  Level FlightAware ADS-B
Mon 05:39:10 PM 60.4690 -23.1900 70° East 512 589 37,000  Level FlightAware ADS-B
Mon 05:39:46 PM 60.4980 -23.0280 70° East 511 588 37,000  Level FlightAware ADS-B
Mon 05:40:36 PM 60.5390 -22.8010 70° East 511 588 37,000  Level FlightAware ADS-B
Mon 05:41:15 PM 60.5710 -22.6180 70° East 513 590 37,000  Level FlightAware ADS-B
Mon 05:41:59 PM 60.6050 -22.4230 70° East 513 590 37,000  Level FlightAware ADS-B
Mon 05:42:39 PM 60.6370 -22.2380 70° East 515 593 37,000  Level FlightAware ADS-B
Mon 05:43:19 PM 60.6690 -22.0530 70° East 513 590 37,000  Level FlightAware ADS-B
Mon 05:44:00 PM 60.7000 -21.8720 71° East 512 589 37,000  Level FlightAware ADS-B
Mon 05:44:37 PM 60.7270 -21.7060 72° East 512 589 37,000  Level FlightAware ADS-B
Mon 05:45:19 PM 60.7600 -21.5100 71° East 511 588 37,000  Level FlightAware ADS-B
Mon 05:46:05 PM 60.7960 -21.2950 71° East 512 589 37,000  Level FlightAware ADS-B
Mon 05:46:43 PM 60.8230 -21.1230 72° East 512 589 37,000  Level FlightAware ADS-B
Mon 05:47:29 PM 60.8570 -20.9130 72° East 512 589 37,000  Level FlightAware ADS-B
Mon 05:48:09 PM 60.8870 -20.7280 71° East 513 590 37,000  Level FlightAware ADS-B
Mon 05:48:50 PM 60.9170 -20.5380 72° East 513 590 37,000  Level FlightAware ADS-B
Mon 05:49:34 PM 60.9480 -20.3360 72° East 513 590 37,000  Level FlightAware ADS-B
Mon 05:50:15 PM 60.9780 -20.1440 72° East 512 589 37,000  Level FlightAware ADS-B
Mon 05:50:59 PM 61.0090 -19.9420 72° East 512 589 37,000  Level FlightAware ADS-B
Mon 05:51:39 PM 61.0350 -19.7500 74° East 511 588 37,000  Level FlightAware ADS-B
Mon 05:52:19 PM 61.0600 -19.5700 74° East 512 589 37,000  Level FlightAware ADS-B
Mon 05:52:58 PM 61.0850 -19.3880 74° East 514 592 37,000  Level FlightAware ADS-B
Mon 05:53:39 PM 61.1110 -19.1900 75° East 515 593 37,000  Level FlightAware ADS-B
Mon 05:54:18 PM 61.1360 -19.0050 74° East 517 595 37,000  Level FlightAware ADS-B
Mon 05:55:03 PM 61.1640 -18.7920 75° East 518 596 37,000  Level FlightAware ADS-B
Mon 05:55:45 PM 61.1900 -18.5920 75° East 517 595 37,000  Level FlightAware ADS-B
Mon 05:56:26 PM 61.2150 -18.3910 75° East 518 596 37,000  Level FlightAware ADS-B
Mon 05:57:07 PM 61.2400 -18.2000 75° East 518 596 37,000  Level FlightAware ADS-B
Mon 05:57:43 PM 61.2620 -18.0230 75° East 519 597 37,000  Level FlightAware ADS-B
Mon 05:58:24 PM 61.2860 -17.8230 76° East 518 596 37,000  Level FlightAware ADS-B
Mon 05:59:08 PM 61.3120 -17.6120 76° East 517 595 37,000  Level FlightAware ADS-B
Mon 05:59:41 PM 61.3310 -17.4540 76° East 519 597 37,000  Level FlightAware ADS-B
Mon 06:00:22 PM 61.3540 -17.2610 76° East 519 597 37,000  Level FlightAware ADS-B
Mon 06:01:08 PM 61.3810 -17.0330 76° East 518 596 37,000  Level FlightAware ADS-B
Mon 06:01:46 PM 61.4020 -16.8510 76° East 518 596 37,000  Level FlightAware ADS-B
Mon 06:02:28 PM 61.4250 -16.6450 77° East 518 596 37,000  Level FlightAware ADS-B
Mon 06:03:12 PM 61.4490 -16.4300 77° East 517 595 37,000  Level FlightAware ADS-B
Mon 06:03:56 PM 61.4730 -16.2170 77° East 516 594 37,000  Level FlightAware ADS-B
Mon 06:04:29 PM 61.4900 -16.0580 77° East 515 593 37,000  Level FlightAware ADS-B
Mon 06:05:12 PM 61.5120 -15.8490 77° East 516 594 37,000  Level FlightAware ADS-B
Mon 06:05:56 PM 61.5350 -15.6360 77° East 517 595 37,000  Level FlightAware ADS-B
Mon 06:06:29 PM 61.5510 -15.4750 78° East 517 595 37,000  Level FlightAware ADS-B
Mon 06:07:12 PM 61.5730 -15.2640 78° East 517 595 37,000  Level FlightAware ADS-B
Mon 06:07:53 PM 61.5930 -15.0670 78° East 518 596 37,000  Level FlightAware ADS-B
Mon 06:08:36 PM 61.6140 -14.8530 78° East 518 596 37,000  Level FlightAware ADS-B
Mon 06:09:16 PM 61.6340 -14.6530 78° East 519 597 37,000  Level FlightAware ADS-B
Mon 06:10:00 PM 61.6540 -14.4400 79° East 519 597 37,000  Level FlightAware ADS-B
Mon 06:10:40 PM 61.6730 -14.2400 79° East 518 596 37,000  Level FlightAware ADS-B
Mon 06:11:36 PM 61.6930 -14.0180 79° East 519 597 37,000  Level FlightAware ADS-B
Mon 06:12:17 PM 61.7160 -13.7650 79° East 519 597 37,000  Level FlightAware ADS-B
Mon 06:13:00 PM 61.7350 -13.5500 79° East 517 595 37,000  Level FlightAware ADS-B
Mon 06:13:41 PM 61.7530 -13.3480 79° East 516 594 37,000  Level FlightAware ADS-B
Mon 06:14:26 PM 61.7720 -13.1230 80° East 515 593 37,000  Level FlightAware ADS-B
Mon 06:15:35 PM 61.7950 -12.8540 80° East 517 595 37,000  Level FlightAware ADS-B
Mon 06:16:15 PM 61.8100 -12.6700 80° East 518 596 37,000  Level FlightAware ADS-B
Mon 06:17:04 PM 61.8360 -12.3400 80° East 522 601 37,000  Level FlightAware ADS-B
Mon 06:17:44 PM 61.8520 -12.1360 80° East 521 600 37,000  Level FlightAware ADS-B
Mon 06:18:24 PM 61.8670 -11.9390 81° East 521 600 37,000  Level FlightAware ADS-B
Mon 06:19:08 PM 61.8840 -11.7140 81° East 521 600 37,000  Level FlightAware ADS-B
Mon 06:19:41 PM 61.8960 -11.5520 81° East 521 600 37,000  Level FlightAware ADS-B
Mon 06:20:27 PM 61.9130 -11.3180 81° East 520 598 37,000  Level FlightAware ADS-B
Mon 06:21:06 PM 61.9270 -11.1230 81° East 521 600 37,000  Level FlightAware ADS-B
Mon 06:21:47 PM 61.9410 -10.9120 82° East 521 600 37,000  Level FlightAware ADS-B
Mon 06:22:30 PM 61.9560 -10.6940 82° East 522 601 37,000  Level FlightAware ADS-B
Mon 06:23:15 PM 61.9700 -10.4730 82° East 521 600 37,000  Level FlightAware ADS-B
Mon 06:23:55 PM 61.9830 -10.2720 82° East 521 600 37,000  Level FlightAware ADS-B
Mon 06:24:35 PM 61.9930 -10.0630 84° East 519 597 37,000  Level FlightAware ADS-B
Mon 06:25:20 PM 61.9890 -9.8320 92° East 515 593 37,000  Level FlightAware ADS-B
Mon 06:25:54 PM 61.9790 -9.6700 97° East 515 593 37,000  Level FlightAware ADS-B
Mon 06:26:39 PM 61.9650 -9.4470 98° East 516 594 37,000  Level FlightAware ADS-B
Mon 06:27:17 PM 61.9550 -9.2840 97° East 516 594 37,000  Level FlightAware ADS-B
Mon 06:28:06 PM 61.9430 -9.0740 97° East 516 594 37,000  Level FlightAware ADS-B
Mon 06:28:42 PM 61.9340 -8.9200 97° East 516 594 37,000  Level FlightAware ADS-B
Mon 06:29:30 PM 61.9220 -8.7140 97° East 516 594 37,000  Level FlightAware ADS-B
Mon 06:30:12 PM 61.8910 -8.3760 101° East 517 595 37,000  Level FlightAware ADS-B
Mon 06:31:08 PM 61.8700 -8.1000 99° East 516 594 37,000  Level FlightAware ADS-B
Mon 06:31:44 PM 61.8570 -7.9170 98° East 516 594 37,000  Level FlightAware ADS-B
Mon 06:32:22 PM 61.8420 -7.7310 100° East 515 593 37,000  Level FlightAware ADS-B
Mon 06:33:06 PM 61.8250 -7.5130 99° East 514 592 37,000  Level FlightAware ADS-B
Mon 06:33:42 PM 61.8100 -7.3300 100° East 514 592 37,000  Level FlightAware ADS-B
Mon 06:34:26 PM 61.7930 -7.1250 100° East 512 589 37,000  Level FlightAware ADS-B
Mon 06:35:06 PM 61.7760 -6.9240 100° East 511 588 37,000  Level FlightAware ADS-B
Mon 06:35:50 PM 61.7580 -6.7050 100° East 511 588 37,000  Level FlightAware ADS-B
Mon 06:36:30 PM 61.7400 -6.5050 101° East 512 589 37,000  Level FlightAware ADS-B
Mon 06:37:14 PM 61.7210 -6.2890 100° East 511 588 37,000  Level FlightAware ADS-B
Mon 06:37:54 PM 61.7040 -6.0980 101° East 512 589 37,000  Level FlightAware ADS-B
Mon 06:38:30 PM 61.6880 -5.9210 101° East 511 588 37,000  Level FlightAware ADS-B
Mon 06:39:12 PM 61.6690 -5.7170 101° East 511 588 37,000  Level FlightAware ADS-B
Mon 06:39:52 PM 61.6510 -5.5260 101° East 513 590 37,000  Level FlightAware ADS-B
Mon 06:40:30 PM 61.6330 -5.3400 101° East 512 589 37,000  Level FlightAware ADS-B
Mon 06:41:10 PM 61.6140 -5.1410 101° East 511 588 37,000  Level FlightAware ADS-B
Mon 06:41:54 PM 61.5930 -4.9330 102° East 510 587 37,000  Level FlightAware ADS-B
Mon 06:42:34 PM 61.5730 -4.7380 102° East 508 585 37,000  Level FlightAware ADS-B
Mon 06:43:18 PM 61.5520 -4.5270 102° East 506 582 37,000  Level FlightAware ADS-B
Mon 06:43:58 PM 61.5320 -4.3380 102° East 504 580 37,000  Level FlightAware ADS-B
Mon 06:44:42 PM 61.5100 -4.1290 102° East 503 579 37,000  Level FlightAware ADS-B
Mon 06:45:25 PM 61.4960 -3.9980 103° East 504 580 37,000  Level FlightAware ADS-B
Mon 06:46:15 PM 61.4720 -3.7690 102° East 504 580 37,000  Level FlightAware ADS-B
Mon 06:47:02 PM 61.4380 -3.4700 103° East 506 582 37,000  Level FlightAware ADS-B
Mon 06:47:42 PM 61.4160 -3.2730 103° East 506 582 37,000  Level FlightAware ADS-B
Mon 06:48:25 PM 61.3930 -3.0750 104° East 506 582 37,000  Level FlightAware ADS-B
Mon 06:49:06 PM 61.3700 -2.8790 104° East 507 583 37,000  Level FlightAware ADS-B
Mon 06:49:50 PM 61.3450 -2.6660 104° East 506 582 37,000  Level FlightAware ADS-B
Mon 06:50:32 PM 61.3220 -2.4750 104° East 507 583 37,000  Level FlightAware ADS-B
Mon 06:51:12 PM 61.3110 -2.3790 103° East 507 583 37,000  Level FlightAware ADS-B
Mon 06:51:47 PM 61.2930 -2.2310 104° East 506 582 37,000  Level FlightAware ADS-B
Mon 06:52:26 PM 61.2560 -1.9340 104° East 505 581 37,000  Level FlightAware ADS-B
Mon 06:53:12 PM 61.2300 -1.7190 104° East 504 580 37,000  Level FlightAware ADS-B
Mon 06:53:54 PM 61.2050 -1.5270 105° East 505 581 37,000  Level FlightAware ADS-B
Mon 06:54:28 PM 61.1840 -1.3640 105° East 505 581 37,000  Level FlightAware ADS-B
Mon 06:55:22 PM 61.1540 -1.1330 105° East 506 582 37,000  Level FlightAware ADS-B
Mon 06:56:08 PM 61.1230 -0.8980 105° East 508 585 37,000  Level FlightAware ADS-B
Mon 06:56:48 PM 61.0980 -0.7140 106° East 507 583 37,000  Level FlightAware ADS-B
Mon 06:57:32 PM 61.0710 -0.5110 105° East 506 582 37,000  Level FlightAware ADS-B
Mon 06:58:12 PM 61.0450 -0.3240 106° East 506 582 37,000  Level FlightAware ADS-B
Mon 06:58:56 PM 61.0140 -0.1210 107° East 506 582 37,000  Level FlightAware ADS-B
Mon 06:59:32 PM 60.9810 0.0270 115° Southeast 505 581 37,000  Level FlightAware ADS-B
Mon 07:00:28 PM 60.9240 0.2110 122° Southeast 501 577 37,000  Level FlightAware ADS-B
Mon 07:01:27 PM 60.8340 0.4930 123° Southeast 502 578 37,000  Level FlightAware ADS-B
Mon 07:01:58 PM 60.7940 0.6100 125° Southeast 507 583 37,000  Level FlightAware ADS-B
Mon 07:02:34 PM 60.7440 0.7570 125° Southeast 508 585 37,000  Level FlightAware ADS-B
Mon 07:03:18 PM 60.6850 0.9270 125° Southeast 508 585 37,000  Level FlightAware ADS-B
Mon 07:03:59 PM 60.6300 1.0860 125° Southeast 506 582 37,000  Level FlightAware ADS-B
Mon 07:04:34 PM 60.5930 1.1900 126° Southeast 507 583 37,000  Level FlightAware ADS-B
Mon 07:05:19 PM 60.5180 1.4050 125° Southeast 513 590 37,000  Level FlightAware ADS-B
Mon 07:06:03 PM 60.4580 1.5730 126° Southeast 512 589 37,000  Level FlightAware ADS-B
Mon 07:06:47 PM 60.3990 1.7380 126° Southeast 511 588 37,000  Level FlightAware ADS-B
Mon 07:07:27 PM 60.3410 1.8990 126° Southeast 510 587 37,000  Level FlightAware ADS-B
Mon 07:08:11 PM 60.2800 2.0680 126° Southeast 512 589 37,000  Level FlightAware ADS-B
Mon 07:08:43 PM 60.2350 2.1900 127° Southeast 514 592 37,000  Level FlightAware ADS-B
Mon 07:09:18 PM 60.1841 2.3295 127° Southeast 466 536 37,000  Level FlightAware UK
Mon 07:09:27 PM 60.1730 2.3600 127° Southeast 516 594 37,000  Level FlightAware ADS-B
Mon 07:10:08 PM 60.1160 2.5150 126° Southeast 517 595 37,000  Level FlightAware ADS-B
Mon 07:10:44 PM 60.0640 2.6550 127° Southeast 517 595 37,000  Level FlightAware ADS-B
Mon 07:11:24 PM 60.0046 2.8125 127° Southeast 468 539 37,000  Level FlightAware UK
Mon 07:11:37 PM 59.9890 2.8540 127° Southeast 516 594 37,000  Level FlightAware ADS-B
Mon 07:12:19 PM 59.9290 3.0120 127° Southeast 516 594 37,000  Level FlightAware ADS-B
Mon 07:13:00 PM 59.8668 3.1775 127° Southeast 466 536 37,000  Level FlightAware UK
Mon 07:13:03 PM 59.8640 3.1840 127° Southeast 517 595 37,000  Level FlightAware ADS-B
Mon 07:13:36 PM 59.8154 3.3126 127° Southeast 466 536 37,000  Level FlightAware UK
Mon 07:13:47 PM 59.8010 3.3480 127° Southeast 517 595 37,000  Level FlightAware ADS-B
Mon 07:14:27 PM 59.7430 3.4990 127° Southeast 517 595 37,000  Level FlightAware ADS-B
Mon 07:15:12 PM 59.6753 3.6732 127° Southeast 462 532 37,000  Level FlightAware UK
Mon 07:15:18 PM 59.6920 3.6280 127° Southeast 511 588 37,000  Level FlightAware ADS-B
Mon 07:16:12 PM 59.5960 3.8760 127° Southeast 514 592 37,000  Level FlightAware ADS-B
Mon 07:16:13 PM 59.5876 3.8975 127° Southeast 466 536 37,000  Level FlightAware UK
Mon 07:16:43 PM 59.5433 4.0098 127° Southeast 464 534 37,000  Level FlightAware UK
Mon 07:16:54 PM 59.5310 4.0390 127° Southeast 520 598 37,000  Level FlightAware ADS-B
Mon 07:17:39 PM 59.4630 4.2110 128° Southeast 519 597 37,000  Level FlightAware ADS-B
Mon 07:18:19 PM 59.4050 4.3560 128° Southeast 520 598 37,000  Level FlightAware ADS-B
Mon 07:18:55 PM 59.3484 4.5005 128° Southeast 462 532 37,000  Level FlightAware UK
Mon 07:19:04 PM 59.3370 4.5250 128° Southeast 521 600 37,000  Level FlightAware ADS-B
Mon 07:19:40 PM 59.2830 4.6580 128° Southeast 523 602 37,000  Level FlightAware ADS-B
Mon 07:20:25 PM 59.2170 4.8190 129° Southeast 520 598 37,000  Level FlightAware ADS-B
Mon 07:21:02 PM 59.1580 4.9630 129° Southeast 522 601 37,000  Level FlightAware ADS-B
Mon 07:21:07 PM 59.1500 4.9879 129° Southeast 464 534 37,000  Level FlightAware UK
Mon 07:21:37 PM 59.1038 5.0993 129° Southeast 464 534 37,000  Level FlightAware UK
Mon 07:21:42 PM 59.0980 5.1090 129° Southeast 523 602 37,000  Level FlightAware ADS-B
Mon 07:22:13 PM 59.0492 5.2303 129° Southeast 466 536 37,000  Level FlightAware UK
Mon 07:22:23 PM 59.0350 5.2590 129° Southeast 522 601 37,000  Level FlightAware ADS-B
Mon 07:23:03 PM 58.9770 5.3980 129° Southeast 521 600 37,000  Level FlightAware ADS-B
Mon 07:23:13 PM 58.9566 5.4520 129° Southeast 464 534 37,000  Level FlightAware UK
Mon 07:23:39 PM 58.9250 5.5210 129° Southeast 521 600 37,000  Level FlightAware ADS-B
Mon 07:23:43 PM 58.9105 5.5614 129° Southeast 464 534 37,000  Level FlightAware UK
Mon 07:24:25 PM 58.8500 5.7070 128° Southeast 532 612 37,000  Level FlightAware ADS-B
Mon 07:25:05 PM 58.8000 5.8580 123° Southeast 531 611 37,000  Level FlightAware ADS-B
Mon 07:25:40 PM 58.7550 5.9980 122° Southeast 534 615 37,000  Level FlightAware ADS-B
Mon 07:26:22 PM 58.6970 6.1680 123° Southeast 533 613 37,000  Level FlightAware ADS-B
Mon 07:27:07 PM 58.6330 6.3560 123° Southeast 533 613 37,000  Level FlightAware ADS-B
Mon 07:27:47 PM 58.5810 6.5100 123° Southeast 532 612 37,000  Level FlightAware ADS-B
Mon 07:28:27 PM 58.5260 6.6670 124° Southeast 531 611 37,000  Level FlightAware ADS-B
Mon 07:29:07 PM 58.4720 6.8230 123° Southeast 529 609 37,000  Level FlightAware ADS-B
Mon 07:29:52 PM 58.4110 6.9970 124° Southeast 531 611 37,000  Level FlightAware ADS-B
Mon 07:30:59 PM 58.3320 7.2210 124° Southeast 536 617 37,000  Level FlightAware ADS-B
Mon 07:31:42 PM 58.2580 7.4280 124° Southeast 535 616 37,000  Level FlightAware ADS-B
Mon 07:32:22 PM 58.2030 7.5800 124° Southeast 533 613 37,000  Level FlightAware ADS-B
Mon 07:33:06 PM 58.1400 7.7560 124° Southeast 532 612 37,000  Level FlightAware ADS-B
Mon 07:33:48 PM 58.0800 7.9140 126° Southeast 529 609 37,000  Level FlightAware ADS-B
Mon 07:34:28 PM 58.0170 8.0490 131° Southeast 530 610 37,000  Level FlightAware ADS-B
Mon 07:35:12 PM 57.9500 8.2040 129° Southeast 531 611 37,000  Level FlightAware ADS-B
Mon 07:35:50 PM 57.8880 8.3420 130° Southeast 535 616 37,000  Level FlightAware ADS-B
Mon 07:36:36 PM 57.8140 8.5020 131° Southeast 536 617 37,000  Level FlightAware ADS-B
Mon 07:37:16 PM 57.7510 8.6380 131° Southeast 540 621 37,000  Level FlightAware ADS-B
Mon 07:38:00 PM 57.6790 8.7930 131° Southeast 541 623 37,000  Level FlightAware ADS-B
Mon 07:38:40 PM 57.6120 8.9370 131° Southeast 543 625 37,000  Level FlightAware ADS-B
Mon 07:39:20 PM 57.5470 9.0760 131° Southeast 541 623 37,000  Level FlightAware ADS-B
Mon 07:39:58 PM 57.4880 9.2110 129° Southeast 542 624 37,000  Level FlightAware ADS-B
Mon 07:40:39 PM 57.4220 9.3600 129° Southeast 541 623 37,000  Level FlightAware ADS-B
Mon 07:41:20 PM 57.3570 9.5050 130° Southeast 541 623 37,000  Level FlightAware ADS-B
Mon 07:41:56 PM 57.2970 9.6380 130° Southeast 541 623 37,000  Level FlightAware ADS-B
Mon 07:42:40 PM 57.2270 9.7930 130° Southeast 540 621 37,000  Level FlightAware ADS-B
Mon 07:43:20 PM 57.1630 9.9320 130° Southeast 540 621 37,000  Level FlightAware ADS-B
Mon 07:44:00 PM 57.0990 10.0710 130° Southeast 538 619 37,000  Level FlightAware ADS-B
Mon 07:44:42 PM 57.0300 10.2200 130° Southeast 537 618 37,000  Level FlightAware ADS-B
Mon 07:45:52 PM 56.9380 10.4190 130° Southeast 536 617 37,000  Level FlightAware ADS-B
Mon 07:46:33 PM 56.8570 10.5910 131° Southeast 536 617 37,000  Level FlightAware ADS-B
Mon 07:47:18 PM 56.7830 10.7480 131° Southeast 536 617 37,000  Level FlightAware ADS-B
Mon 07:47:57 PM 56.7180 10.8850 131° Southeast 537 618 37,000  Level FlightAware ADS-B
Mon 07:48:41 PM 56.6460 11.0360 131° Southeast 535 616 37,000  Level FlightAware ADS-B
Mon 07:49:19 PM 56.5840 11.1630 132° Southeast 535 616 37,000  Level FlightAware ADS-B
Mon 07:49:58 PM 56.5210 11.2930 131° Southeast 533 613 37,000  Level FlightAware ADS-B
Mon 07:50:38 PM 56.4550 11.4280 131° Southeast 531 611 37,000  Level FlightAware ADS-B
Mon 07:51:19 PM 56.3910 11.5610 131° Southeast 529 609 37,000  Level FlightAware ADS-B
Mon 07:51:55 PM 56.3310 11.6810 132° Southeast 529 609 37,000  Level FlightAware ADS-B
Mon 07:52:37 PM 56.2640 11.8180 131° Southeast 530 610 37,000  Level FlightAware ADS-B
Mon 07:53:17 PM 56.1980 11.9490 132° Southeast 530 610 37,000  Level FlightAware ADS-B
Mon 07:54:01 PM 56.1270 12.0930 131° Southeast 532 612 37,000  Level FlightAware ADS-B
Mon 07:54:45 PM 56.0530 12.2390 132° Southeast 531 611 37,000  Level FlightAware ADS-B
Mon 07:55:24 PM 55.9900 12.3640 132° Southeast 532 612 37,000  Level FlightAware ADS-B
Mon 07:56:06 PM 55.9200 12.5010 132° Southeast 532 612 37,000  Level FlightAware ADS-B
Mon 07:56:48 PM 55.8510 12.6360 132° Southeast 530 610 37,000  Level FlightAware ADS-B
Mon 07:57:35 PM 55.7650 12.7690 139° Southeast 528 608 37,000  Level FlightAware ADS-B
Mon 07:58:14 PM 55.6920 12.8810 139° Southeast 530 610 37,000  Level FlightAware ADS-B
Mon 07:58:58 PM 55.6120 13.0050 139° Southeast 530 610 37,000  Level FlightAware ADS-B
Mon 07:59:39 PM 55.5380 13.1190 139° Southeast 531 611 37,000  Level FlightAware ADS-B
Mon 08:00:15 PM 55.4720 13.2210 139° Southeast 530 610 37,000  Level FlightAware ADS-B
Mon 08:01:09 PM 55.3720 13.3730 139° Southeast 531 611 37,000  Level FlightAware ADS-B
Mon 08:01:54 PM 55.2890 13.4990 139° Southeast 530 610 37,000  Level FlightAware ADS-B
Mon 08:02:29 PM 55.2240 13.5960 140° Southeast 529 609 37,000  Level FlightAware ADS-B
Mon 08:03:09 PM 55.1490 13.7080 140° Southeast 527 606 37,000  Level FlightAware ADS-B
Mon 08:03:54 PM 55.0660 13.8320 139° Southeast 527 606 37,000  Level FlightAware ADS-B
Mon 08:04:29 PM 55.0030 13.9260 139° Southeast 525 604 37,000  Level FlightAware ADS-B
Mon 08:05:13 PM 54.9210 14.0470 140° Southeast 524 603 37,000  Level FlightAware ADS-B
Mon 08:05:54 PM 54.8440 14.1590 140° Southeast 525 604 37,000  Level FlightAware ADS-B
Mon 08:06:33 PM 54.7720 14.2650 140° Southeast 525 604 37,000  Level FlightAware ADS-B
Mon 08:07:14 PM 54.6970 14.3730 140° Southeast 526 605 37,000  Level FlightAware ADS-B
Mon 08:07:59 PM 54.6120 14.4960 140° Southeast 526 605 37,000  Level FlightAware ADS-B
Mon 08:08:44 PM 54.5270 14.6190 140° Southeast 527 606 37,000  Level FlightAware ADS-B
Mon 08:09:19 PM 54.4640 14.7080 141° Southeast 524 603 37,000  Level FlightAware ADS-B
Mon 08:09:58 PM 54.3890 14.8150 140° Southeast 523 602 37,000  Level FlightAware ADS-B
Mon 08:10:39 PM 54.3140 14.9220 140° Southeast 522 601 37,000  Level FlightAware ADS-B
Mon 08:11:35 PM 54.2070 15.0720 141° Southeast 523 602 37,000 313 Level FlightAware ADS-B
Mon 08:12:15 PM 54.1330 15.1760 141° Southeast 526 605 37,500 786 Climbing FlightAware ADS-B
Mon 08:12:59 PM 54.0500 15.2920 141° Southeast 527 606 38,100 759 Climbing FlightAware ADS-B
Mon 08:13:34 PM 53.9830 15.3850 141° Southeast 531 611 38,500 640 Climbing FlightAware ADS-B
Mon 08:14:14 PM 53.9070 15.4900 141° Southeast 533 613 38,900 357 Climbing FlightAware ADS-B
Mon 08:14:58 PM 53.8230 15.6050 141° Southeast 536 617 39,000 71 Climbing FlightAware ADS-B
Mon 08:15:39 PM 53.7460 15.7100 141° Southeast 535 616 39,000  Level FlightAware ADS-B
Mon 08:16:19 PM 53.6680 15.8160 141° Southeast 533 613 39,000  Level FlightAware ADS-B
Mon 08:17:03 PM 53.5840 15.9300 141° Southeast 531 611 39,000  Level FlightAware ADS-B
Mon 08:17:43 PM 53.5090 16.0320 141° Southeast 530 610 39,000  Level FlightAware ADS-B
Mon 08:18:27 PM 53.4240 16.1450 142° Southeast 528 608 39,000  Level FlightAware ADS-B
Mon 08:19:07 PM 53.3480 16.2470 141° Southeast 526 605 39,000  Level FlightAware ADS-B
Mon 08:19:52 PM 53.2610 16.3620 142° Southeast 525 604 39,000  Level FlightAware ADS-B
Mon 08:20:32 PM 53.1850 16.4620 142° Southeast 526 605 39,000  Level FlightAware ADS-B
Mon 08:21:15 PM 53.1060 16.5670 141° Southeast 527 606 39,000  Level FlightAware ADS-B
Mon 08:21:55 PM 53.0280 16.6690 142° Southeast 527 606 39,000  Level FlightAware ADS-B
Mon 08:22:47 PM 52.9300 16.7960 142° Southeast 524 603 39,000  Level FlightAware ADS-B
Mon 08:23:27 PM 52.8530 16.8960 142° Southeast 521 600 39,000  Level FlightAware ADS-B
Mon 08:24:12 PM 52.7660 17.0070 142° Southeast 520 598 39,000  Level FlightAware ADS-B
Mon 08:24:45 PM 52.7060 17.0850 142° Southeast 518 596 39,000  Level FlightAware ADS-B
Mon 08:25:27 PM 52.6280 17.1830 143° Southeast 517 595 39,000  Level FlightAware ADS-B
Mon 08:26:16 PM 52.5330 17.3040 142° Southeast 517 595 39,000  Level FlightAware ADS-B
Mon 08:26:55 PM 52.4620 17.3950 142° Southeast 518 596 39,000  Level FlightAware ADS-B
Mon 08:27:38 PM 52.3780 17.5000 143° Southeast 518 596 39,000  Level FlightAware ADS-B
Mon 08:28:19 PM 52.3010 17.5970 142° Southeast 520 598 39,000  Level FlightAware ADS-B
Mon 08:29:04 PM 52.2140 17.7050 143° Southeast 520 598 39,000  Level FlightAware ADS-B
Mon 08:29:45 PM 52.1380 17.7990 143° Southeast 520 598 39,000  Level FlightAware ADS-B
Mon 08:30:29 PM 52.0520 17.9040 143° Southeast 521 600 39,000  Level FlightAware ADS-B
Mon 08:31:09 PM 51.9760 17.9990 142° Southeast 521 600 39,000  Level FlightAware ADS-B
Mon 08:31:45 PM 51.9080 18.0820 143° Southeast 519 597 39,000  Level FlightAware ADS-B
Mon 08:32:25 PM 51.8280 18.1790 143° Southeast 519 597 39,000  Level FlightAware ADS-B
Mon 08:33:11 PM 51.7410 18.2850 143° Southeast 520 598 39,000  Level FlightAware ADS-B
Mon 08:33:51 PM 51.6640 18.3780 143° Southeast 520 598 39,000  Level FlightAware ADS-B
Mon 08:34:31 PM 51.5870 18.4700 143° Southeast 518 596 39,000  Level FlightAware ADS-B
Mon 08:35:15 PM 51.5040 18.5690 143° Southeast 513 590 39,000  Level FlightAware ADS-B
Mon 08:35:55 PM 51.4280 18.6590 144° Southeast 511 588 39,000  Level FlightAware ADS-B
Mon 08:36:31 PM 51.3610 18.7390 143° Southeast 509 586 39,000  Level FlightAware ADS-B
Mon 08:37:13 PM 51.2800 18.8350 143° Southeast 506 582 39,000  Level FlightAware ADS-B
Mon 08:37:57 PM 51.1980 18.9320 143° Southeast 503 579 39,000  Level FlightAware ADS-B
Mon 08:38:30 PM 51.1400 18.9990 144° Southeast 501 577 39,000  Level FlightAware ADS-B
Mon 08:39:13 PM 51.0560 19.0980 143° Southeast 498 573 39,000  Level FlightAware ADS-B
Mon 08:39:53 PM 50.9820 19.1830 144° Southeast 496 571 39,000  Level FlightAware ADS-B
Mon 08:40:37 PM 50.9010 19.2770 144° Southeast 496 571 39,000  Level FlightAware ADS-B
Mon 08:41:17 PM 50.8280 19.3610 144° Southeast 496 571 39,000  Level FlightAware ADS-B
Mon 08:42:01 PM 50.7450 19.4560 144° Southeast 496 571 39,000  Level FlightAware ADS-B
Mon 08:42:45 PM 50.6630 19.5490 144° Southeast 499 574 39,000  Level FlightAware ADS-B
Mon 08:43:21 PM 50.6010 19.6200 144° Southeast 502 578 39,000  Level FlightAware ADS-B
Mon 08:44:01 PM 50.5270 19.7050 144° Southeast 504 580 39,000  Level FlightAware ADS-B
Mon 08:44:41 PM 50.4450 19.7970 144° Southeast 503 579 39,000  Level FlightAware ADS-B
Mon 08:45:19 PM 50.3750 19.8760 144° Southeast 503 579 39,000  Level FlightAware ADS-B
Mon 08:46:05 PM 50.2870 19.9740 145° Southeast 503 579 39,000  Level FlightAware ADS-B
Mon 08:46:47 PM 50.2080 20.0620 145° Southeast 503 579 39,000  Level FlightAware ADS-B
Mon 08:47:31 PM 50.1240 20.1550 145° Southeast 501 577 39,000  Level FlightAware ADS-B
Mon 08:48:11 PM 50.0480 20.2390 145° Southeast 500 575 39,000  Level FlightAware ADS-B
Mon 08:48:53 PM 49.9690 20.3260 145° Southeast 499 574 39,000  Level FlightAware ADS-B
Mon 08:49:35 PM 49.8910 20.4120 145° Southeast 498 573 39,000  Level FlightAware ADS-B
Mon 08:50:19 PM 49.8090 20.5010 145° Southeast 498 573 39,000  Level FlightAware ADS-B
Mon 08:51:01 PM 49.7300 20.5870 145° Southeast 498 573 39,000  Level FlightAware ADS-B
Mon 08:51:41 PM 49.6530 20.6710 145° Southeast 498 573 39,000  Level FlightAware ADS-B
Mon 08:52:21 PM 49.5790 20.7510 145° Southeast 500 575 39,000  Level FlightAware ADS-B
Mon 08:53:01 PM 49.5040 20.8310 145° Southeast 499 574 39,000  Level FlightAware ADS-B
Mon 08:53:40 PM 49.4310 20.9100 145° Southeast 498 573 39,000  Level FlightAware ADS-B
Mon 08:54:21 PM 49.3520 20.9890 147° Southeast 499 574 39,000  Level FlightAware ADS-B
Mon 08:55:05 PM 49.2660 21.0700 148° Southeast 500 575 39,000  Level FlightAware ADS-B
Mon 08:55:49 PM 49.1790 21.1530 148° Southeast 498 573 39,000  Level FlightAware ADS-B
Mon 08:56:29 PM 49.1000 21.2290 148° Southeast 498 573 39,000  Level FlightAware ADS-B
Mon 08:57:13 PM 49.0150 21.3110 148° Southeast 496 571 39,000  Level FlightAware ADS-B
Mon 08:57:45 PM 48.9550 21.3680 148° Southeast 496 571 39,000  Level FlightAware ADS-B
Mon 08:58:27 PM 48.8710 21.4470 148° Southeast 495 570 39,000  Level FlightAware ADS-B
Mon 08:59:09 PM 48.7910 21.5230 148° Southeast 496 571 39,000  Level FlightAware ADS-B
Mon 08:59:46 PM 48.7220 21.5880 148° Southeast 498 573 39,000  Level FlightAware ADS-B
Mon 09:00:28 PM 48.6370 21.6670 148° Southeast 498 573 39,000  Level FlightAware ADS-B
Mon 09:01:06 PM 48.5600 21.7390 148° Southeast 498 573 39,000  Level FlightAware ADS-B
Mon 09:01:52 PM 48.4740 21.8200 148° Southeast 497 572 39,000  Level FlightAware ADS-B
Mon 09:02:32 PM 48.3910 21.8740 157° South 496 571 39,000  Level FlightAware ADS-B
Mon 09:03:14 PM 48.2950 21.9240 161° South 495 570 39,000  Level FlightAware ADS-B
Mon 09:03:56 PM 48.2040 21.9740 160° South 494 568 39,000  Level FlightAware ADS-B
Mon 09:04:32 PM 48.1320 22.0140 160° South 495 570 39,000  Level FlightAware ADS-B
Mon 09:05:16 PM 48.0350 22.0670 160° South 496 571 39,000  Level FlightAware ADS-B
Mon 09:05:56 PM 47.9500 22.1130 160° South 496 571 39,000  Level FlightAware ADS-B
Mon 09:06:29 PM 47.8770 22.1520 160° South 494 568 39,000  Level FlightAware ADS-B
Mon 09:07:12 PM 47.7840 22.2030 160° South 494 568 39,000  Level FlightAware ADS-B
Mon 09:07:56 PM 47.6940 22.2510 160° South 495 570 39,000  Level FlightAware ADS-B
Mon 09:08:28 PM 47.6250 22.2880 160° South 495 570 39,000  Level FlightAware ADS-B
Mon 09:09:12 PM 47.5290 22.3390 160° South 495 570 39,000  Level FlightAware ADS-B
Mon 09:09:52 PM 47.4430 22.3850 160° South 497 572 39,000  Level FlightAware ADS-B
Mon 09:10:37 PM 47.3450 22.4370 160° South 496 571 39,000  Level FlightAware ADS-B
Mon 09:11:29 PM 47.2370 22.4940 160° South 496 571 39,000  Level FlightAware ADS-B
Mon 09:12:12 PM 47.1390 22.5450 161° South 495 570 39,000  Level FlightAware ADS-B
Mon 09:12:52 PM 47.0520 22.5910 160° South 495 570 39,000  Level FlightAware ADS-B
Mon 09:13:46 PM 46.9380 22.6510 160° South 493 567 39,000  Level FlightAware ADS-B
Mon 09:14:23 PM 46.8610 22.6900 161° South 492 566 39,000  Level FlightAware ADS-B
Mon 09:15:08 PM 46.7610 22.7420 160° South 491 565 39,000  Level FlightAware ADS-B
Mon 09:15:48 PM 46.6750 22.7860 161° South 489 563 39,000  Level FlightAware ADS-B
Mon 09:16:33 PM 46.5820 22.8340 160° South 488 562 39,000  Level FlightAware ADS-B
Mon 09:17:13 PM 46.4930 22.8800 160° South 488 562 39,000  Level FlightAware ADS-B
Mon 09:17:53 PM 46.4080 22.9230 161° South 489 563 39,000  Level FlightAware ADS-B
Mon 09:18:48 PM 46.2910 22.9830 160° South 492 566 39,000  Level FlightAware ADS-B
Mon 09:19:33 PM 46.1930 23.0320 161° South 493 567 39,000  Level FlightAware ADS-B
Mon 09:20:13 PM 46.1090 23.0750 160° South 493 567 39,000  Level FlightAware ADS-B
Mon 09:20:58 PM 46.0170 23.1210 161° South 491 565 39,000  Level FlightAware ADS-B
Mon 09:21:38 PM 45.9270 23.1680 160° South 493 567 39,000  Level FlightAware ADS-B
Mon 09:22:18 PM 45.8490 23.2370 148° Southeast 496 571 39,000  Level FlightAware ADS-B
Mon 09:22:58 PM 45.7730 23.3060 148° Southeast 497 572 39,000  Level FlightAware ADS-B
Mon 09:23:49 PM 45.6800 23.3900 148° Southeast 498 573 39,000  Level FlightAware ADS-B
Mon 09:24:35 PM 45.5890 23.4720 148° Southeast 500 575 39,000  Level FlightAware ADS-B
Mon 09:25:15 PM 45.5100 23.5430 148° Southeast 501 577 39,000  Level FlightAware ADS-B
Mon 09:25:54 PM 45.4330 23.6120 148° Southeast 501 577 39,000  Level FlightAware ADS-B
Mon 09:26:37 PM 45.3510 23.6850 148° Southeast 496 571 39,000  Level FlightAware ADS-B
Mon 09:27:18 PM 45.2710 23.7560 148° Southeast 494 568 39,000  Level FlightAware ADS-B
Mon 09:28:00 PM 45.1890 23.8290 148° Southeast 491 565 39,000  Level FlightAware ADS-B
Mon 09:28:36 PM 45.1210 23.8880 149° Southeast 491 565 39,000  Level FlightAware ADS-B
Mon 09:29:19 PM 45.0350 23.9650 148° Southeast 490 564 39,000  Level FlightAware ADS-B
Mon 09:30:00 PM 44.9550 24.0340 149° Southeast 485 558 39,000  Level FlightAware ADS-B
Mon 09:30:36 PM 44.8910 24.0900 148° Southeast 485 558 39,000  Level FlightAware ADS-B
Mon 09:31:17 PM 44.8120 24.1590 148° Southeast 484 557 39,000  Level FlightAware ADS-B
Mon 09:32:05 PM 44.7220 24.2360 149° Southeast 478 550 39,000  Level FlightAware ADS-B
Mon 09:32:42 PM 44.6520 24.2970 148° Southeast 477 549 39,000  Level FlightAware ADS-B
Mon 09:33:29 PM 44.5650 24.3720 148° Southeast 476 548 39,000  Level FlightAware ADS-B
Mon 09:34:10 PM 44.4860 24.4400 148° Southeast 477 549 39,000  Level FlightAware ADS-B
Mon 09:34:43 PM 44.4230 24.4940 149° Southeast 474 545 39,000  Level FlightAware ADS-B
Mon 09:35:29 PM 44.3400 24.5640 149° Southeast 474 545 39,000  Level FlightAware ADS-B
Mon 09:36:04 PM 44.2720 24.6220 149° Southeast 475 547 39,000  Level FlightAware ADS-B
Mon 09:36:53 PM 44.1800 24.7010 148° Southeast 478 550 39,000  Level FlightAware ADS-B
Mon 09:37:28 PM 44.1170 24.7530 149° Southeast 479 551 39,000  Level FlightAware ADS-B
Mon 09:38:15 PM 44.0280 24.8290 148° Southeast 481 554 39,000  Level FlightAware ADS-B
Mon 09:38:57 PM 43.9450 24.8980 149° Southeast 478 550 39,000  Level FlightAware ADS-B
Mon 09:39:30 PM 43.8820 24.9510 149° Southeast 479 551 39,000  Level FlightAware ADS-B
Mon 09:40:11 PM 43.8080 25.0130 149° Southeast 480 552 39,000  Level FlightAware ADS-B
Mon 09:40:57 PM 43.7170 25.0890 149° Southeast 481 554 39,000  Level FlightAware ADS-B
Mon 09:41:32 PM 43.6530 25.1410 150° Southeast 482 555 39,000  Level FlightAware ADS-B
Mon 09:42:10 PM 43.5750 25.2060 149° Southeast 481 554 39,000  Level FlightAware ADS-B
Mon 09:42:54 PM 43.4940 25.2730 149° Southeast 481 554 39,000  Level FlightAware ADS-B
Mon 09:43:36 PM 43.4180 25.3350 149° Southeast 478 550 39,000  Level FlightAware ADS-B
Mon 09:44:17 PM 43.3380 25.4010 149° Southeast 468 539 39,000  Level FlightAware ADS-B
Mon 09:44:59 PM 43.2590 25.4650 149° Southeast 466 536 39,000  Level FlightAware ADS-B
Mon 09:45:40 PM 43.1850 25.5260 149° Southeast 467 537 39,000  Level FlightAware ADS-B
Mon 09:46:26 PM 43.0990 25.5960 149° Southeast 468 539 39,000  Level FlightAware ADS-B
Mon 09:46:55 PM 43.0450 25.6400 149° Southeast 469 540 39,000  Level FlightAware ADS-B
Mon 09:47:34 PM 42.9690 25.7010 150° Southeast 467 537 39,000  Level FlightAware ADS-B
Mon 09:48:19 PM 42.8830 25.7700 150° Southeast 469 540 39,000  Level FlightAware ADS-B
Mon 09:48:59 PM 42.8080 25.8310 149° Southeast 472 543 39,000  Level FlightAware ADS-B
Mon 09:49:39 PM 42.7330 25.8910 150° Southeast 474 545 39,000  Level FlightAware ADS-B
Mon 09:50:19 PM 42.6580 25.9500 150° Southeast 476 548 39,000  Level FlightAware ADS-B
Mon 09:51:04 PM 42.5720 26.0180 150° Southeast 476 548 39,000  Level FlightAware ADS-B
Mon 09:51:45 PM 42.4960 26.0790 149° Southeast 473 544 39,000  Level FlightAware ADS-B
Mon 09:52:29 PM 42.4160 26.1420 150° Southeast 473 544 39,000  Level FlightAware ADS-B
Mon 09:53:09 PM 42.3380 26.2040 150° Southeast 471 542 39,000  Level FlightAware ADS-B
Mon 09:53:39 PM 42.2850 26.2460 150° Southeast 458 527 39,000 -623 Level FlightAware ADS-B
Mon 09:54:26 PM 42.1960 26.3160 150° Southeast 459 528 38,200 -1,586 Descending FlightAware ADS-B
Mon 09:55:06 PM 42.1180 26.3760 150° Southeast 479 551 36,700 -2,160 Descending FlightAware ADS-B
Mon 09:55:41 PM 42.0520 26.4280 150° Southeast 486 559 35,500 -2,080 Descending FlightAware ADS-B
Mon 09:56:21 PM 41.9800 26.4840 150° Southeast 486 559 34,100 -2,471 Descending FlightAware ADS-B
Mon 09:57:06 PM 41.8940 26.5670 144° Southeast 492 566 32,000 -2,276 Descending FlightAware ADS-B
Mon 09:57:48 PM 41.8300 26.6540 135° Southeast 477 549 30,800 -2,000 Descending FlightAware ADS-B
Mon 09:58:33 PM 41.7680 26.7690 126° Southeast 473 544 29,100 -1,976 Descending FlightAware ADS-B
Mon 09:59:13 PM 41.7200 26.8620 125° Southeast 462 532 28,000 -1,800 Descending FlightAware ADS-B
Mon 09:59:53 PM 41.6730 26.9530 125° Southeast 453 521 26,700 -484 Descending FlightAware ADS-B
Mon 10:01:54 PM 41.5520 27.1920 116° Southeast 453 521 26,700 -1,633 Level FlightAware ADS-B
Mon 10:02:00 PM 41.5457 27.3038 116° Southeast  Level Estimated
Mon 10:02:31 PM 41.4910 27.3050 126° Southeast 404 465 22,400  Level FlightAware ADS-B
Mon 10:03:09 PM 41.4550 27.3770 124° Southeast 403 464 21,100 -1,732 Descending FlightAware ADS-B
Mon 10:04:08 PM 41.3940 27.4990 124° Southeast 391 450 19,600 -1,615 Descending FlightAware ADS-B
Mon 10:04:53 PM 41.3470 27.5920 124° Southeast 384 442 18,300 -1,624 Descending FlightAware ADS-B
Mon 10:05:33 PM 41.3080 27.6690 124° Southeast 376 433 17,300 -1,553 Descending FlightAware ADS-B
Mon 10:06:18 PM 41.2650 27.7530 124° Southeast 371 427 16,100 -1,535 Descending FlightAware ADS-B
Mon 10:06:59 PM 41.2260 27.8300 124° Southeast 360 414 15,100 -1,412 Descending FlightAware ADS-B
Mon 10:07:43 PM 41.1840 27.9130 124° Southeast 348 400 14,100 -1,429 Descending FlightAware ADS-B
Mon 10:08:23 PM 41.1490 27.9810 124° Southeast 347 399 13,100 -1,500 Descending FlightAware ADS-B
Mon 10:09:03 PM 41.1120 28.0520 125° Southeast 342 394 12,100 -1,059 Descending FlightAware ADS-B
Mon 10:09:48 PM 41.0730 28.1290 124° Southeast 317 365 11,600 -494 Descending FlightAware ADS-B
Mon 10:10:28 PM 41.0410 28.1900 125° Southeast 295 339 11,400 -369 Descending FlightAware ADS-B
Mon 10:10:53 PM 41.0260 28.2290 117° Southeast 277 319 11,200 -1,111 Descending FlightAware ADS-B
Mon 10:11:49 PM 40.9990 28.3130 113° Southeast 258 297 9,900 -1,674 Descending FlightAware ADS-B
Mon 10:12:19 PM 40.9850 28.3560 113° Southeast 257 296 8,800 -2,100 Descending FlightAware ADS-B
Mon 10:12:29 PM 40.9800 28.3690 117° Southeast 256 295 8,500 -1,800 Descending FlightAware ADS-B
Mon 10:12:59 PM 40.9660 28.4140 112° Southeast 249 287 7,600 -1,964 Descending FlightAware ADS-B
Mon 10:13:24 PM 40.9540 28.4480 115° Southeast 245 282 6,700 -1,950 Descending FlightAware ADS-B
Mon 10:13:39 PM 40.9490 28.4660 110° East 241 277 6,300 -2,100 Descending FlightAware ADS-B
Mon 10:14:04 PM 40.9380 28.4980 114° Southeast 241 277 5,300 -2,400 Descending FlightAware ADS-B
Mon 10:14:19 PM 40.9310 28.5200 113° Southeast 241 277 4,700 -1,038 Descending FlightAware ADS-B
Mon 10:14:56 PM 40.9170 28.5620 114° Southeast 238 274 4,400 -1,575 Descending FlightAware ADS-B
Mon 10:15:39 PM 40.8960 28.6210 115° Southeast 213 245 2,600 -1,727 Descending FlightAware ADS-B
Mon 10:16:02 PM 40.8890 28.6440 112° Southeast 191 220 2,500 -218 Descending FlightAware ADS-B
Mon 10:16:34 PM 40.9030 28.6750 59° Northeast 149 171 2,400 -545 Descending FlightAware ADS-B
Mon 10:17:19 PM 40.9190 28.7110 60° Northeast 153 176 1,800 -764 Descending FlightAware ADS-B
Mon 10:17:29 PM 40.9220 28.7170 57° Northeast 152 175 1,700 -732 Descending FlightAware ADS-B
Mon 10:18:00 PM 40.9340 28.7420 58° Northeast 136 157 1,300 -686 Descending FlightAware ADS-B
Mon 10:18:39 PM 40.9460 28.7680 59° Northeast 131 151 900 -364 Descending FlightAware ADS-B
Mon 10:19:06 PM 40.9540 28.7840 56° Northeast 131 151 900 -507 Level FlightAware ADS-B
Mon 10:19:50 PM 40.9690 28.8170 59° Northeast 131 151 300 -818 Descending FlightAware ADS-B
Mon 10:20:35 PM 40.9770 28.8350 60° Northeast 67 77 -400 Descending FlightAware ADS-B
Mon 10:23:00 PM 40.9769 28.8211 150° Southeast  Level Estimated
Mon 10:24:00 PM 40.9769 28.8211 150° Southeast  Level Estimated
Mon 10:25:00 PM 40.9769 28.8211 150° Southeast  Level Estimated
Mon 10:26:00 PM 40.9769 28.8211 150° Southeast  Level Estimated
Mon 10:27:00 PM 40.9769 28.8211 150° Southeast  Level Estimated
Mon 10:28:00 PM 40.9769 28.8211 150° Southeast  Level Estimated
Mon 10:29:00 PM 40.9769 28.8211 150° Southeast  Level Estimated
Mon 10:30:00 PM 40.9769 28.8211 150° Southeast  Level Estimated

Login

Don't have an account? Register now (free) for customized features, flight alerts, and more!